createdAt,value
2019-03-27T00:00:41.803Z,85.28
2019-03-27T00:01:41.786Z,85.28
2019-03-27T00:02:41.763Z,85.49
2019-03-27T00:03:41.751Z,85.49
2019-03-27T00:04:41.962Z,85.49
2019-03-27T00:05:41.733Z,85.80
2019-03-27T00:06:41.774Z,86.01
2019-03-27T00:07:41.720Z,86.01
2019-03-27T00:08:41.724Z,86.01
2019-03-27T00:09:41.692Z,86.42
2019-03-27T00:10:41.750Z,86.25
2019-03-27T00:11:41.671Z,86.25
2019-03-27T00:12:41.649Z,86.46
2019-03-27T00:13:41.665Z,86.57
2019-03-27T00:14:41.626Z,86.88
2019-03-27T00:15:41.634Z,86.98
2019-03-27T00:16:41.657Z,87.12
2019-03-27T00:17:41.593Z,87.29
2019-03-27T00:18:41.604Z,87.12
2019-03-27T00:19:41.575Z,87.08
2019-03-27T00:20:41.570Z,87.12
2019-03-27T00:21:41.547Z,87.02
2019-03-27T00:22:41.595Z,87.33
2019-03-27T00:23:41.539Z,87.12
2019-03-27T00:24:41.523Z,87.12
2019-03-27T00:25:41.508Z,86.91
2019-03-27T00:26:41.509Z,87.23
2019-03-27T00:27:41.517Z,87.37
2019-03-27T00:28:41.508Z,87.85
2019-03-27T00:29:41.464Z,87.68
2019-03-27T00:30:41.454Z,87.68
2019-03-27T00:31:41.450Z,87.74
2019-03-27T00:32:41.434Z,87.68
2019-03-27T00:33:41.425Z,87.57
2019-03-27T00:34:41.440Z,87.68
2019-03-27T00:35:41.392Z,87.88
2019-03-27T00:36:41.386Z,87.68
2019-03-27T00:37:41.384Z,87.68
2019-03-27T00:38:41.375Z,87.57
2019-03-27T00:39:41.362Z,87.78
2019-03-27T00:40:41.381Z,88.09
2019-03-27T00:41:41.333Z,87.57
2019-03-27T00:42:41.317Z,88.96
2019-03-27T00:43:41.314Z,88.45
2019-03-27T00:44:41.366Z,88.24
2019-03-27T00:45:41.293Z,88.03
2019-03-27T00:46:41.337Z,88.86
2019-03-27T00:47:41.274Z,88.86
2019-03-27T00:48:41.276Z,88.76
2019-03-27T00:49:41.242Z,88.76
2019-03-27T00:50:41.240Z,88.86
2019-03-27T00:51:41.224Z,88.76
2019-03-27T00:52:41.268Z,88.24
2019-03-27T00:53:41.221Z,87.97
2019-03-27T00:54:41.194Z,87.87
2019-03-27T00:55:41.183Z,87.97
2019-03-27T00:56:41.171Z,87.93
2019-03-27T00:57:41.159Z,87.97
2019-03-27T00:58:41.205Z,87.87
2019-03-27T00:59:41.141Z,88.28
2019-03-27T01:00:41.133Z,88.28
2019-03-27T01:01:41.129Z,89.00
2019-03-27T01:02:41.111Z,88.90
2019-03-27T01:03:41.133Z,88.79
2019-03-27T01:04:41.116Z,88.69
2019-03-27T01:05:41.070Z,89.00
2019-03-27T01:06:41.084Z,87.87
2019-03-27T01:07:41.052Z,88.79
2019-03-27T01:08:41.041Z,88.94
2019-03-27T01:09:41.026Z,88.69
2019-03-27T01:10:41.062Z,88.90
2019-03-27T01:11:41.002Z,88.42
2019-03-27T01:12:41.001Z,88.59
2019-03-27T01:13:40.983Z,87.80
2019-03-27T01:14:40.975Z,88.21
2019-03-27T01:15:40.968Z,88.73
2019-03-27T01:16:40.993Z,88.84
2019-03-27T01:17:40.944Z,88.94
2019-03-27T01:18:40.956Z,88.53
2019-03-27T01:19:40.913Z,88.32
2019-03-27T01:20:40.904Z,88.63
2019-03-27T01:21:40.895Z,88.73
2019-03-27T01:22:40.934Z,88.21
2019-03-27T01:23:40.879Z,88.73
2019-03-27T01:24:40.869Z,88.73
2019-03-27T01:25:40.856Z,89.09
2019-03-27T01:26:40.916Z,88.88
2019-03-27T01:27:40.850Z,88.84
2019-03-27T01:28:40.877Z,88.73
2019-03-27T01:29:40.804Z,88.67
2019-03-27T01:30:40.879Z,88.78
2019-03-27T01:31:40.811Z,88.57
2019-03-27T01:32:40.792Z,88.67
2019-03-27T01:33:40.767Z,88.63
2019-03-27T01:34:40.818Z,88.36
2019-03-27T01:35:40.749Z,89.19
2019-03-27T01:36:40.736Z,88.98
2019-03-27T01:37:40.798Z,89.29
2019-03-27T01:38:40.709Z,89.29
2019-03-27T01:39:40.717Z,89.09
2019-03-27T01:40:40.725Z,89.40
2019-03-27T01:41:40.680Z,89.50
2019-03-27T01:42:40.668Z,89.92
2019-03-27T01:43:40.648Z,90.64
2019-03-27T01:44:40.646Z,90.54
2019-03-27T01:45:52.391Z,90.54
2019-03-27T01:46:41.679Z,90.69
2019-03-27T01:47:40.610Z,90.33
2019-03-27T01:48:40.609Z,90.58
2019-03-27T01:49:40.628Z,90.06
2019-03-27T01:50:40.578Z,90.48
2019-03-27T01:51:40.568Z,90.48
2019-03-27T01:52:41.004Z,90.48
2019-03-27T01:53:40.560Z,90.48
2019-03-27T01:54:40.545Z,90.58
2019-03-27T01:55:40.541Z,90.48
2019-03-27T01:56:40.512Z,90.37
2019-03-27T01:57:40.499Z,90.69
2019-03-27T01:58:40.556Z,90.48
2019-03-27T01:59:40.493Z,90.69
2019-03-27T02:00:40.468Z,90.58
2019-03-27T02:01:40.457Z,90.79
2019-03-27T02:02:40.461Z,90.79
2019-03-27T02:03:40.453Z,90.58
2019-03-27T02:04:40.516Z,90.62
2019-03-27T02:05:40.446Z,90.69
2019-03-27T02:06:40.411Z,90.69
2019-03-27T02:07:40.412Z,91.03
2019-03-27T02:08:40.392Z,90.93
2019-03-27T02:09:40.400Z,91.14
2019-03-27T02:10:40.397Z,91.55
2019-03-27T02:11:40.355Z,91.24
2019-03-27T02:12:40.353Z,91.14
2019-03-27T02:13:40.330Z,91.14
2019-03-27T02:14:40.328Z,91.45
2019-03-27T02:15:40.318Z,91.24
2019-03-27T02:16:40.357Z,91.24
2019-03-27T02:17:40.289Z,91.24
2019-03-27T02:18:40.290Z,91.14
2019-03-27T02:19:40.267Z,91.14
2019-03-27T02:20:40.263Z,91.86
2019-03-27T02:21:40.238Z,91.86
2019-03-27T02:22:40.276Z,91.14
2019-03-27T02:23:40.248Z,90.93
2019-03-27T02:24:40.220Z,91.10
2019-03-27T02:25:40.194Z,91.24
2019-03-27T02:26:40.191Z,91.24
2019-03-27T02:27:40.175Z,91.62
2019-03-27T02:28:40.220Z,91.41
2019-03-27T02:29:40.154Z,91.24
2019-03-27T02:30:40.154Z,91.10
2019-03-27T02:31:40.213Z,91.14
2019-03-27T02:32:40.131Z,91.10
2019-03-27T02:33:40.142Z,91.00
2019-03-27T02:34:40.142Z,91.20
2019-03-27T02:35:40.095Z,91.20
2019-03-27T02:36:40.082Z,91.72
2019-03-27T02:37:40.089Z,91.72
2019-03-27T02:38:40.069Z,91.93
2019-03-27T02:39:40.062Z,91.72
2019-03-27T02:40:40.096Z,91.93
2019-03-27T02:41:40.046Z,91.83
2019-03-27T02:42:40.025Z,91.62
2019-03-27T02:43:40.003Z,91.93
2019-03-27T02:44:39.997Z,91.93
2019-03-27T02:45:39.990Z,92.03
2019-03-27T02:46:40.043Z,92.03
2019-03-27T02:47:39.967Z,92.24
2019-03-27T02:48:39.948Z,92.24
2019-03-27T02:49:39.948Z,92.66
2019-03-27T02:50:39.938Z,92.66
2019-03-27T02:51:39.918Z,92.55
2019-03-27T02:52:39.967Z,92.61
2019-03-27T02:53:39.914Z,92.20
2019-03-27T02:54:39.886Z,91.52
2019-03-27T02:55:39.876Z,91.72
2019-03-27T02:56:39.862Z,91.68
2019-03-27T02:57:39.844Z,91.68
2019-03-27T02:58:39.902Z,91.58
2019-03-27T02:59:39.840Z,91.58
2019-03-27T03:00:39.824Z,91.99
2019-03-27T03:01:39.812Z,91.89
2019-03-27T03:02:39.804Z,91.99
2019-03-27T03:03:39.804Z,91.68
2019-03-27T03:04:39.822Z,91.58
2019-03-27T03:05:39.759Z,91.58
2019-03-27T03:06:39.759Z,91.99
2019-03-27T03:07:39.765Z,91.68
2019-03-27T03:08:39.736Z,91.58
2019-03-27T03:09:39.717Z,92.20
2019-03-27T03:10:39.750Z,91.99
2019-03-27T03:11:39.781Z,92.24
2019-03-27T03:12:39.706Z,91.93
2019-03-27T03:13:39.758Z,92.14
2019-03-27T03:14:39.679Z,92.10
2019-03-27T03:15:39.649Z,92.45
2019-03-27T03:16:42.773Z,92.45
2019-03-27T03:17:39.628Z,92.45
2019-03-27T03:18:39.626Z,92.45
2019-03-27T03:19:39.641Z,92.66
2019-03-27T03:20:39.603Z,92.55
2019-03-27T03:21:39.584Z,92.45
2019-03-27T03:22:39.638Z,92.76
2019-03-27T03:23:39.564Z,92.66
2019-03-27T03:24:39.557Z,92.76
2019-03-27T03:25:39.581Z,92.97
2019-03-27T03:26:39.560Z,92.90
2019-03-27T03:27:39.535Z,92.49
2019-03-27T03:28:39.546Z,92.80
2019-03-27T03:29:39.512Z,92.69
2019-03-27T03:30:39.540Z,92.80
2019-03-27T03:31:39.492Z,92.80
2019-03-27T03:32:39.497Z,93.16
2019-03-27T03:33:39.479Z,92.69
2019-03-27T03:34:39.496Z,93.26
2019-03-27T03:35:39.437Z,93.12
2019-03-27T03:36:39.445Z,93.22
2019-03-27T03:37:39.407Z,93.22
2019-03-27T03:38:39.416Z,93.16
2019-03-27T03:39:39.396Z,92.94
2019-03-27T03:40:39.443Z,92.84
2019-03-27T03:41:39.370Z,92.94
2019-03-27T03:42:39.375Z,92.94
2019-03-27T03:43:39.365Z,93.26
2019-03-27T03:44:39.362Z,93.30
2019-03-27T03:45:39.338Z,93.26
2019-03-27T03:46:39.357Z,93.37
2019-03-27T03:47:39.310Z,92.94
2019-03-27T03:48:39.338Z,92.84
2019-03-27T03:49:39.311Z,92.94
2019-03-27T03:50:39.280Z,93.20
2019-03-27T03:51:39.271Z,93.30
2019-03-27T03:52:39.300Z,93.37
2019-03-27T03:53:39.246Z,93.20
2019-03-27T03:54:39.244Z,93.51
2019-03-27T03:55:39.219Z,93.41
2019-03-27T03:56:39.207Z,93.30
2019-03-27T03:57:39.217Z,93.30
2019-03-27T03:58:39.247Z,93.51
2019-03-27T03:59:39.182Z,93.72
2019-03-27T04:00:39.175Z,93.76
2019-03-27T04:01:39.155Z,93.72
2019-03-27T04:02:39.152Z,94.18
2019-03-27T04:03:39.165Z,94.18
2019-03-27T04:04:39.184Z,94.13
2019-03-27T04:05:39.130Z,94.18
2019-03-27T04:06:39.101Z,93.55
2019-03-27T04:07:39.085Z,93.97
2019-03-27T04:08:39.093Z,94.49
2019-03-27T04:09:39.065Z,94.07
2019-03-27T04:10:39.107Z,94.07
2019-03-27T04:11:39.051Z,94.03
2019-03-27T04:12:39.034Z,94.13
2019-03-27T04:13:39.019Z,94.13
2019-03-27T04:14:39.011Z,94.28
2019-03-27T04:15:39.002Z,94.03
2019-03-27T04:16:39.053Z,94.24
2019-03-27T04:17:38.993Z,94.24
2019-03-27T04:18:38.969Z,94.07
2019-03-27T04:19:38.957Z,94.13
2019-03-27T04:20:38.952Z,94.03
2019-03-27T04:21:38.937Z,94.13
2019-03-27T04:22:38.954Z,94.28
2019-03-27T04:23:38.919Z,94.03
2019-03-27T04:24:38.917Z,94.03
2019-03-27T04:26:07.269Z,94.24
2019-03-27T04:26:39.898Z,94.03
2019-03-27T04:27:38.870Z,94.34
2019-03-27T04:28:38.914Z,93.66
2019-03-27T04:29:38.844Z,93.93
2019-03-27T04:30:38.834Z,94.03
2019-03-27T04:31:38.837Z,93.93
2019-03-27T04:32:38.839Z,94.03
2019-03-27T04:33:38.822Z,93.93
2019-03-27T04:34:38.835Z,94.13
2019-03-27T04:35:38.793Z,94.03
2019-03-27T04:36:38.821Z,94.24
2019-03-27T04:37:38.769Z,93.93
2019-03-27T04:38:38.746Z,93.93
2019-03-27T04:39:38.742Z,93.97
2019-03-27T04:40:38.791Z,94.03
2019-03-27T04:41:38.723Z,93.87
2019-03-27T04:42:38.703Z,93.62
2019-03-27T04:43:38.717Z,94.18
2019-03-27T04:44:38.693Z,94.07
2019-03-27T04:45:38.670Z,94.28
2019-03-27T04:46:38.713Z,94.28
2019-03-27T04:47:38.655Z,94.28
2019-03-27T04:48:38.640Z,94.07
2019-03-27T04:49:38.648Z,94.28
2019-03-27T04:50:38.619Z,94.38
2019-03-27T04:51:38.608Z,94.59
2019-03-27T04:52:38.655Z,94.38
2019-03-27T04:53:38.590Z,94.80
2019-03-27T04:54:38.577Z,95.01
2019-03-27T04:55:38.578Z,95.01
2019-03-27T04:56:38.566Z,95.01
2019-03-27T04:57:38.555Z,94.49
2019-03-27T04:58:38.625Z,95.15
2019-03-27T04:59:38.521Z,95.21
2019-03-27T05:00:38.514Z,95.42
2019-03-27T05:01:38.510Z,95.21
2019-03-27T05:02:38.490Z,95.36
2019-03-27T05:03:38.479Z,95.47
2019-03-27T05:04:38.507Z,95.26
2019-03-27T05:05:38.456Z,95.11
2019-03-27T05:06:38.445Z,95.01
2019-03-27T05:07:38.430Z,96.20
2019-03-27T05:08:38.419Z,95.89
2019-03-27T05:09:38.418Z,95.78
2019-03-27T05:10:38.491Z,95.99
2019-03-27T05:11:38.464Z,95.78
2019-03-27T05:12:38.872Z,95.78
2019-03-27T05:13:38.388Z,95.89
2019-03-27T05:14:38.386Z,95.78
2019-03-27T05:15:38.359Z,95.89
2019-03-27T05:16:38.408Z,95.89
2019-03-27T05:17:45.673Z,95.78
2019-03-27T05:18:39.314Z,95.89
2019-03-27T05:19:38.300Z,95.78
2019-03-27T05:20:38.340Z,95.99
2019-03-27T05:21:38.301Z,95.89
2019-03-27T05:22:38.330Z,95.89
2019-03-27T05:23:38.270Z,95.99
2019-03-27T05:24:38.281Z,96.09
2019-03-27T05:25:38.252Z,95.99
2019-03-27T05:26:38.241Z,95.99
2019-03-27T05:27:38.240Z,95.89
2019-03-27T05:28:38.252Z,95.78
2019-03-27T05:29:38.204Z,95.84
2019-03-27T05:30:38.189Z,95.89
2019-03-27T05:31:38.197Z,95.84
2019-03-27T05:32:38.186Z,95.73
2019-03-27T05:33:38.150Z,95.94
2019-03-27T05:34:38.177Z,96.04
2019-03-27T05:35:38.141Z,95.94
2019-03-27T05:36:38.138Z,95.53
2019-03-27T05:37:38.121Z,95.59
2019-03-27T05:38:38.108Z,95.59
2019-03-27T05:39:38.149Z,95.69
2019-03-27T05:40:38.131Z,95.73
2019-03-27T05:41:38.070Z,95.90
2019-03-27T05:42:38.050Z,95.73
2019-03-27T05:43:38.071Z,95.73
2019-03-27T05:44:38.029Z,95.59
2019-03-27T05:45:38.058Z,95.79
2019-03-27T05:46:38.072Z,95.28
2019-03-27T05:47:38.008Z,95.48
2019-03-27T05:48:37.994Z,95.48
2019-03-27T05:49:37.994Z,95.48
2019-03-27T05:50:38.018Z,95.28
2019-03-27T05:51:37.962Z,95.54
2019-03-27T05:52:38.440Z,95.69
2019-03-27T05:53:37.944Z,95.13
2019-03-27T05:54:37.922Z,95.03
2019-03-27T05:55:37.908Z,95.03
2019-03-27T05:56:37.903Z,95.03
2019-03-27T05:57:37.953Z,94.92
2019-03-27T05:58:37.913Z,94.88
2019-03-27T05:59:37.894Z,94.88
2019-03-27T06:00:37.858Z,94.88
2019-03-27T06:01:37.866Z,94.88
2019-03-27T06:02:37.855Z,95.23
2019-03-27T06:03:37.838Z,95.19
2019-03-27T06:04:37.851Z,95.09
2019-03-27T06:05:37.807Z,94.98
2019-03-27T06:06:37.802Z,95.40
2019-03-27T06:07:37.818Z,94.46
2019-03-27T06:08:37.780Z,94.78
2019-03-27T06:09:37.812Z,94.63
2019-03-27T06:10:37.799Z,94.84
2019-03-27T06:11:37.734Z,94.42
2019-03-27T06:12:37.744Z,94.42
2019-03-27T06:13:37.709Z,94.21
2019-03-27T06:14:37.711Z,94.06
2019-03-27T06:15:37.694Z,94.17
2019-03-27T06:16:37.725Z,93.44
2019-03-27T06:17:37.668Z,93.85
2019-03-27T06:18:37.670Z,93.50
2019-03-27T06:19:37.669Z,93.44
2019-03-27T06:20:37.637Z,93.60
2019-03-27T06:21:37.636Z,92.78
2019-03-27T06:22:37.678Z,93.08
2019-03-27T06:23:37.607Z,92.78
2019-03-27T06:24:37.693Z,93.08
2019-03-27T06:25:37.628Z,92.74
2019-03-27T06:26:37.581Z,92.43
2019-03-27T06:27:37.565Z,92.43
2019-03-27T06:28:37.615Z,92.11
2019-03-27T06:29:37.544Z,92.18
2019-03-27T06:30:37.531Z,91.60
2019-03-27T06:31:37.555Z,91.76
2019-03-27T06:32:37.522Z,91.45
2019-03-27T06:33:37.493Z,91.45
2019-03-27T06:34:37.512Z,91.24
2019-03-27T06:35:37.504Z,91.14
2019-03-27T06:36:37.468Z,90.93
2019-03-27T06:37:37.447Z,90.89
2019-03-27T06:38:37.482Z,90.89
2019-03-27T06:39:37.428Z,91.09
2019-03-27T06:40:39.740Z,90.78
2019-03-27T06:41:37.415Z,90.99
2019-03-27T06:42:37.408Z,90.99
2019-03-27T06:43:37.392Z,90.99
2019-03-27T06:44:37.390Z,90.99
2019-03-27T06:45:37.364Z,90.84
2019-03-27T06:46:37.379Z,90.99
2019-03-27T06:47:37.336Z,91.16
2019-03-27T06:48:37.328Z,90.84
2019-03-27T06:49:37.349Z,90.74
2019-03-27T06:50:37.318Z,90.95
2019-03-27T06:51:40.288Z,90.95
2019-03-27T06:52:37.344Z,90.84
2019-03-27T06:53:37.290Z,91.01
2019-03-27T06:54:37.267Z,91.05
2019-03-27T06:55:37.292Z,91.22
2019-03-27T06:56:37.241Z,91.22
2019-03-27T06:57:37.225Z,91.63
2019-03-27T06:58:37.267Z,90.97
2019-03-27T06:59:37.205Z,91.22
2019-03-27T07:00:37.206Z,90.56
2019-03-27T07:01:37.175Z,90.77
2019-03-27T07:02:37.169Z,90.87
2019-03-27T07:03:37.158Z,90.77
2019-03-27T07:04:37.210Z,90.14
2019-03-27T07:05:37.137Z,90.52
2019-03-27T07:06:37.127Z,90.52
2019-03-27T07:07:37.121Z,90.20
2019-03-27T07:08:37.100Z,90.06
2019-03-27T07:09:37.091Z,90.20
2019-03-27T07:10:37.136Z,90.16
2019-03-27T07:11:37.190Z,90.06
2019-03-27T07:12:37.460Z,90.37
2019-03-27T07:13:37.081Z,90.12
2019-03-27T07:14:37.045Z,89.44
2019-03-27T07:15:37.080Z,88.68
2019-03-27T07:16:37.223Z,89.13
2019-03-27T07:17:37.040Z,89.29
2019-03-27T07:18:40.432Z,89.23
2019-03-27T07:19:37.086Z,88.98
2019-03-27T07:20:36.966Z,88.26
2019-03-27T07:21:37.235Z,88.02
2019-03-27T07:22:37.058Z,88.53
2019-03-27T07:23:37.027Z,87.60
2019-03-27T07:24:37.012Z,87.08
2019-03-27T07:25:37.071Z,86.98
2019-03-27T07:26:37.014Z,86.84
2019-03-27T07:27:36.996Z,86.74
2019-03-27T07:28:37.028Z,86.53
2019-03-27T07:29:36.993Z,85.67
2019-03-27T07:30:36.955Z,85.91
2019-03-27T07:31:36.950Z,85.36
2019-03-27T07:32:36.973Z,85.81
2019-03-27T07:33:36.912Z,85.57
2019-03-27T07:34:36.953Z,85.46
2019-03-27T07:35:36.815Z,85.22
2019-03-27T07:36:36.796Z,84.84
2019-03-27T07:37:36.790Z,85.25
2019-03-27T07:38:36.774Z,85.25
2019-03-27T07:39:36.754Z,85.63
2019-03-27T07:40:36.787Z,85.11
2019-03-27T07:41:36.732Z,85.31
2019-03-27T07:42:36.729Z,85.73
2019-03-27T07:43:36.722Z,85.22
2019-03-27T07:44:36.711Z,84.59
2019-03-27T07:45:36.713Z,83.98
2019-03-27T07:46:36.742Z,84.29
2019-03-27T07:47:36.690Z,84.91
2019-03-27T07:48:36.662Z,84.59
2019-03-27T07:49:36.677Z,84.39
2019-03-27T07:50:36.650Z,84.80
2019-03-27T07:51:36.633Z,85.11
2019-03-27T07:52:36.646Z,85.42
2019-03-27T07:53:36.613Z,85.38
2019-03-27T07:54:36.644Z,85.11
2019-03-27T07:55:36.579Z,85.07
2019-03-27T07:56:36.634Z,84.80
2019-03-27T07:57:36.562Z,85.07
2019-03-27T07:58:36.620Z,85.59
2019-03-27T07:59:36.547Z,84.35
2019-03-27T08:00:36.534Z,83.63
2019-03-27T08:01:36.522Z,84.14
2019-03-27T08:02:36.499Z,83.53
2019-03-27T08:03:36.533Z,83.70
2019-03-27T08:04:36.682Z,83.90
2019-03-27T08:05:36.477Z,83.22
2019-03-27T08:06:36.465Z,83.63
2019-03-27T08:07:36.463Z,83.42
2019-03-27T08:08:36.452Z,84.21
2019-03-27T08:09:36.428Z,84.21
2019-03-27T08:10:36.616Z,83.39
2019-03-27T08:11:36.440Z,83.49
2019-03-27T08:12:36.390Z,83.59
2019-03-27T08:13:36.378Z,83.28
2019-03-27T08:14:36.368Z,82.67
2019-03-27T08:15:36.393Z,82.87
2019-03-27T08:16:36.371Z,83.39
2019-03-27T08:17:36.373Z,82.87
2019-03-27T08:18:36.349Z,81.88
2019-03-27T08:19:36.314Z,82.70
2019-03-27T08:20:36.314Z,83.22
2019-03-27T08:21:36.289Z,82.70
2019-03-27T08:22:36.522Z,81.77
2019-03-27T08:23:36.284Z,81.47
2019-03-27T08:24:36.301Z,81.57
2019-03-27T08:25:36.254Z,82.87
2019-03-27T08:26:36.242Z,82.05
2019-03-27T08:27:36.222Z,81.63
2019-03-27T08:28:36.350Z,81.43
2019-03-27T08:29:36.202Z,81.57
2019-03-27T08:30:36.204Z,81.37
2019-03-27T08:31:36.201Z,81.63
2019-03-27T08:32:37.502Z,81.63
2019-03-27T08:33:36.159Z,80.67
2019-03-27T08:34:36.190Z,80.16
2019-03-27T08:35:36.156Z,80.05
2019-03-27T08:36:36.129Z,79.91
2019-03-27T08:37:36.121Z,79.61
2019-03-27T08:38:36.115Z,79.50
2019-03-27T08:39:36.089Z,77.86
2019-03-27T08:40:36.129Z,76.52
2019-03-27T08:41:36.067Z,77.24
2019-03-27T08:42:36.055Z,77.24
2019-03-27T08:43:36.046Z,78.47
2019-03-27T08:44:36.049Z,77.72
2019-03-27T08:45:36.052Z,77.27
2019-03-27T08:46:36.134Z,76.97
2019-03-27T08:47:36.010Z,76.65
2019-03-27T08:48:39.080Z,75.83
2019-03-27T08:49:35.989Z,75.12
2019-03-27T08:50:35.969Z,76.65
2019-03-27T08:51:35.961Z,75.63
2019-03-27T08:52:36.013Z,77.13
2019-03-27T08:53:35.947Z,73.54
2019-03-27T08:54:35.960Z,73.74
2019-03-27T08:55:35.920Z,74.15
2019-03-27T08:56:35.953Z,74.12
2019-03-27T08:57:35.911Z,73.40
2019-03-27T08:58:35.931Z,74.32
2019-03-27T08:59:35.872Z,72.99
2019-03-27T09:00:35.886Z,74.53
2019-03-27T09:01:35.846Z,74.94
2019-03-27T09:02:35.839Z,74.19
2019-03-27T09:03:35.898Z,74.15
2019-03-27T09:04:35.872Z,73.33
2019-03-27T09:05:35.814Z,72.89
2019-03-27T09:06:35.806Z,72.51
2019-03-27T09:07:35.781Z,71.59
2019-03-27T09:08:35.771Z,72.41
2019-03-27T09:09:35.798Z,72.72
2019-03-27T09:10:35.815Z,72.96
2019-03-27T09:11:35.750Z,74.05
2019-03-27T09:12:35.726Z,72.61
2019-03-27T09:13:35.714Z,73.13
2019-03-27T09:14:35.713Z,72.51
2019-03-27T09:15:35.699Z,72.92
2019-03-27T09:16:35.733Z,72.51
2019-03-27T09:17:35.671Z,72.82
2019-03-27T09:18:35.691Z,72.68
2019-03-27T09:19:36.428Z,73.13
2019-03-27T09:20:35.639Z,72.48
2019-03-27T09:21:35.638Z,71.15
2019-03-27T09:22:35.689Z,72.86
2019-03-27T09:23:35.602Z,71.42
2019-03-27T09:24:35.593Z,70.70
2019-03-27T09:25:35.581Z,70.81
2019-03-27T09:26:35.577Z,70.87
2019-03-27T09:27:35.564Z,70.98
2019-03-27T09:28:35.612Z,69.24
2019-03-27T09:29:35.547Z,69.20
2019-03-27T09:30:35.551Z,68.90
2019-03-27T09:31:44.538Z,70.94
2019-03-27T09:32:36.508Z,68.76
2019-03-27T09:33:35.577Z,67.74
2019-03-27T09:34:35.545Z,68.97
2019-03-27T09:35:35.481Z,68.52
2019-03-27T09:36:35.480Z,67.81
2019-03-27T09:37:35.449Z,67.30
2019-03-27T09:38:35.448Z,66.78
2019-03-27T09:39:35.453Z,66.31
2019-03-27T09:40:35.447Z,68.76
2019-03-27T09:41:35.434Z,69.31
2019-03-27T09:42:35.404Z,70.12
2019-03-27T09:43:35.386Z,70.87
2019-03-27T09:44:35.388Z,70.26
2019-03-27T09:45:35.361Z,71.11
2019-03-27T09:46:35.421Z,70.87
2019-03-27T09:47:35.340Z,71.11
2019-03-27T09:48:35.341Z,69.65
2019-03-27T09:49:48.625Z,70.09
2019-03-27T09:50:36.310Z,71.01
2019-03-27T09:51:35.321Z,70.50
2019-03-27T09:52:35.374Z,69.06
2019-03-27T09:53:35.273Z,69.17
2019-03-27T09:54:35.275Z,68.76
2019-03-27T09:55:35.253Z,68.76
2019-03-27T09:56:35.243Z,68.04
2019-03-27T09:57:35.243Z,68.04
2019-03-27T09:58:35.248Z,68.41
2019-03-27T09:59:35.210Z,69.13
2019-03-27T10:00:35.217Z,68.65
2019-03-27T10:01:35.221Z,69.17
2019-03-27T10:02:35.176Z,68.73
2019-03-27T10:03:35.180Z,68.86
2019-03-27T10:04:35.208Z,67.19
2019-03-27T10:05:35.158Z,69.17
2019-03-27T10:06:35.151Z,67.63
2019-03-27T10:07:35.121Z,66.57
2019-03-27T10:08:35.214Z,65.75
2019-03-27T10:09:35.219Z,66.47
2019-03-27T10:10:35.139Z,65.96
2019-03-27T10:11:35.079Z,67.05
2019-03-27T10:12:35.089Z,67.26
2019-03-27T10:13:35.049Z,67.26
2019-03-27T10:14:35.046Z,66.20
2019-03-27T10:15:35.061Z,66.95
2019-03-27T10:16:35.063Z,65.21
2019-03-27T10:17:35.021Z,65.18
2019-03-27T10:18:35.002Z,66.92
2019-03-27T10:19:34.995Z,66.88
2019-03-27T10:20:34.978Z,66.37
2019-03-27T10:21:34.968Z,67.90
2019-03-27T10:22:35.089Z,67.36
2019-03-27T10:23:34.944Z,67.46
2019-03-27T10:24:34.935Z,66.44
2019-03-27T10:25:34.938Z,65.90
2019-03-27T10:26:34.916Z,65.08
2019-03-27T10:27:34.899Z,64.29
2019-03-27T10:28:34.963Z,64.70
2019-03-27T10:29:34.892Z,66.95
2019-03-27T10:30:34.866Z,65.62
2019-03-27T10:31:34.860Z,66.24
2019-03-27T10:32:34.848Z,67.16
2019-03-27T10:33:34.837Z,66.13
2019-03-27T10:34:34.868Z,66.98
2019-03-27T10:35:34.826Z,67.97
2019-03-27T10:36:34.804Z,68.11
2019-03-27T10:37:34.841Z,68.49
2019-03-27T10:38:34.776Z,68.08
2019-03-27T10:39:34.767Z,68.18
2019-03-27T10:40:34.819Z,68.25
2019-03-27T10:41:34.744Z,67.30
2019-03-27T10:42:34.768Z,68.63
2019-03-27T10:43:34.770Z,69.17
2019-03-27T10:44:34.705Z,69.04
2019-03-27T10:45:34.699Z,69.34
2019-03-27T10:46:34.729Z,68.90
2019-03-27T10:47:34.680Z,68.29
2019-03-27T10:48:34.661Z,68.12
2019-03-27T10:49:34.683Z,68.29
2019-03-27T10:50:34.657Z,68.08
2019-03-27T10:51:34.627Z,68.42
2019-03-27T10:52:34.645Z,68.73
2019-03-27T10:53:34.621Z,67.40
2019-03-27T10:54:34.595Z,66.28
2019-03-27T10:55:34.727Z,66.28
2019-03-27T10:56:34.590Z,67.71
2019-03-27T10:57:34.564Z,68.01
2019-03-27T10:58:34.691Z,68.32
2019-03-27T10:59:34.550Z,67.71
2019-03-27T11:00:34.591Z,66.35
2019-03-27T11:01:34.516Z,63.96
2019-03-27T11:02:34.580Z,64.68
2019-03-27T11:03:34.488Z,62.95
2019-03-27T11:04:34.530Z,63.86
2019-03-27T11:05:34.467Z,63.86
2019-03-27T11:06:34.454Z,64.37
2019-03-27T11:07:34.537Z,64.07
2019-03-27T11:08:34.441Z,64.10
2019-03-27T11:09:34.455Z,61.92
2019-03-27T11:10:34.467Z,61.61
2019-03-27T11:11:34.404Z,61.92
2019-03-27T11:12:34.392Z,61.31
2019-03-27T11:13:34.654Z,61.08
2019-03-27T11:14:38.073Z,62.51
2019-03-27T11:15:34.352Z,61.38
2019-03-27T11:16:34.395Z,61.73
2019-03-27T11:17:34.350Z,60.48
2019-03-27T11:18:34.325Z,61.07
2019-03-27T11:19:34.323Z,58.82
2019-03-27T11:20:34.300Z,59.91
2019-03-27T11:21:34.343Z,60.32
2019-03-27T11:22:34.306Z,58.97
2019-03-27T11:23:34.267Z,59.61
2019-03-27T11:24:34.254Z,59.00
2019-03-27T11:25:34.251Z,61.24
2019-03-27T11:26:34.357Z,60.76
2019-03-27T11:27:34.226Z,60.35
2019-03-27T11:28:34.283Z,60.94
2019-03-27T11:29:34.216Z,61.28
2019-03-27T11:30:34.194Z,60.85
2019-03-27T11:31:34.183Z,60.26
2019-03-27T11:32:34.161Z,59.72
2019-03-27T11:33:34.176Z,60.03
2019-03-27T11:34:34.205Z,59.44
2019-03-27T11:35:34.142Z,60.16
2019-03-27T11:36:35.313Z,60.57
2019-03-27T11:37:34.106Z,59.95
2019-03-27T11:38:37.287Z,61.18
2019-03-27T11:39:34.083Z,60.05
2019-03-27T11:40:34.101Z,60.16
2019-03-27T11:41:34.097Z,61.79
2019-03-27T11:42:34.054Z,59.64
2019-03-27T11:43:34.043Z,58.11
2019-03-27T11:44:34.040Z,57.91
2019-03-27T11:45:34.084Z,58.39
2019-03-27T11:46:34.046Z,57.78
2019-03-27T11:47:33.990Z,57.17
2019-03-27T11:48:34.001Z,59.52
2019-03-27T11:49:33.984Z,58.78
2019-03-27T11:50:44.034Z,58.47
2019-03-27T11:51:34.998Z,57.78
2019-03-27T11:52:33.952Z,58.09
2019-03-27T11:53:33.937Z,57.78
2019-03-27T11:54:33.916Z,57.68
2019-03-27T11:55:33.906Z,55.84
2019-03-27T11:56:33.906Z,56.35
2019-03-27T11:57:33.939Z,56.04
2019-03-27T11:58:33.897Z,54.72
2019-03-27T11:59:33.867Z,55.13
2019-03-27T12:00:33.864Z,56.15
2019-03-27T12:01:39.617Z,56.66
2019-03-27T12:02:34.885Z,54.61
2019-03-27T12:03:33.827Z,56.99
2019-03-27T12:04:33.803Z,57.17
2019-03-27T12:05:33.812Z,57.48
2019-03-27T12:06:33.780Z,56.86
2019-03-27T12:07:33.770Z,57.07
2019-03-27T12:08:33.815Z,56.15
2019-03-27T12:09:33.752Z,55.84
2019-03-27T12:10:33.941Z,56.76
2019-03-27T12:11:33.767Z,57.45
2019-03-27T12:12:33.735Z,57.24
2019-03-27T12:13:33.719Z,58.37
2019-03-27T12:14:33.735Z,57.04
2019-03-27T12:15:33.700Z,55.51
2019-03-27T12:16:33.714Z,56.43
2019-03-27T12:17:33.662Z,56.30
2019-03-27T12:18:33.646Z,55.61
2019-03-27T12:19:33.647Z,54.16
2019-03-27T12:20:33.692Z,53.44
2019-03-27T12:21:33.624Z,54.33
2019-03-27T12:22:33.600Z,54.13
2019-03-27T12:23:33.599Z,51.66
2019-03-27T12:24:33.582Z,53.11
2019-03-27T12:25:33.567Z,52.88
2019-03-27T12:26:33.618Z,53.19
2019-03-27T12:27:33.552Z,54.44
2019-03-27T12:28:33.575Z,54.33
2019-03-27T12:29:33.594Z,52.58
2019-03-27T12:30:33.516Z,52.88
2019-03-27T12:31:33.529Z,53.09
2019-03-27T12:32:33.526Z,54.92
2019-03-27T12:33:33.489Z,54.49
2019-03-27T12:34:36.524Z,53.98
2019-03-27T12:35:33.479Z,53.24
2019-03-27T12:36:33.464Z,53.39
2019-03-27T12:37:33.439Z,52.68
2019-03-27T12:38:33.455Z,54.72
2019-03-27T12:39:33.459Z,54.49
2019-03-27T12:40:33.435Z,53.09
2019-03-27T12:41:33.392Z,55.43
2019-03-27T12:42:33.393Z,52.89
2019-03-27T12:43:33.379Z,53.29
2019-03-27T12:44:33.417Z,53.96
2019-03-27T12:45:33.363Z,54.26
2019-03-27T12:46:33.336Z,56.22
2019-03-27T12:47:33.335Z,56.04
2019-03-27T12:48:33.327Z,56.55
2019-03-27T12:49:33.317Z,56.65
2019-03-27T12:50:33.355Z,56.37
2019-03-27T12:51:33.284Z,56.60
2019-03-27T12:52:33.301Z,57.32